sensor_id;sensor_type;location;lat;lon;timestamp;temperature;humidity
17891;DHT22;9071;48.220;14.480;2023-04-24T00:01:55;11.70;99.90
17891;DHT22;9071;48.220;14.480;2023-04-24T00:06:59;11.90;99.90
17891;DHT22;9071;48.220;14.480;2023-04-24T00:12:02;12.00;99.90
17891;DHT22;9071;48.220;14.480;2023-04-24T00:17:05;12.20;99.90
17891;DHT22;9071;48.220;14.480;2023-04-24T00:22:07;12.50;99.90
17891;DHT22;9071;48.220;14.480;2023-04-24T00:27:11;12.60;99.90
17891;DHT22;9071;48.220;14.480;2023-04-24T00:32:13;12.80;99.90
17891;DHT22;9071;48.220;14.480;2023-04-24T00:37:15;12.90;99.90
17891;DHT22;9071;48.220;14.480;2023-04-24T00:42:19;12.90;99.90
17891;DHT22;9071;48.220;14.480;2023-04-24T00:47:22;13.00;99.90
17891;DHT22;9071;48.220;14.480;2023-04-24T00:52:24;12.90;99.90
17891;DHT22;9071;48.220;14.480;2023-04-24T00:57:28;12.90;99.90
17891;DHT22;9071;48.220;14.480;2023-04-24T01:02:30;12.90;99.90
17891;DHT22;9071;48.220;14.480;2023-04-24T01:07:35;12.90;99.90
17891;DHT22;9071;48.220;14.480;2023-04-24T01:12:38;12.80;99.90
17891;DHT22;9071;48.220;14.480;2023-04-24T01:17:40;12.70;99.90
17891;DHT22;9071;48.220;14.480;2023-04-24T01:22:44;12.60;99.90
17891;DHT22;9071;48.220;14.480;2023-04-24T01:27:46;12.50;99.90
17891;DHT22;9071;48.220;14.480;2023-04-24T01:32:48;12.40;99.90
17891;DHT22;9071;48.220;14.480;2023-04-24T01:37:52;12.40;99.90
17891;DHT22;9071;48.220;14.480;2023-04-24T01:42:54;12.30;99.90
17891;DHT22;9071;48.220;14.480;2023-04-24T01:47:57;12.30;99.90
17891;DHT22;9071;48.220;14.480;2023-04-24T01:53:00;12.20;99.90
17891;DHT22;9071;48.220;14.480;2023-04-24T01:58:02;12.20;99.90
17891;DHT22;9071;48.220;14.480;2023-04-24T02:03:04;12.20;99.90
17891;DHT22;9071;48.220;14.480;2023-04-24T02:08:08;12.10;99.90
17891;DHT22;9071;48.220;14.480;2023-04-24T02:13:10;12.10;99.90
17891;DHT22;9071;48.220;14.480;2023-04-24T02:18:12;12.00;99.90
17891;DHT22;9071;48.220;14.480;2023-04-24T02:23:15;12.00;99.90
17891;DHT22;9071;48.220;14.480;2023-04-24T02:28:17;11.90;99.90
17891;DHT22;9071;48.220;14.480;2023-04-24T02:33:19;11.80;99.90
17891;DHT22;9071;48.220;14.480;2023-04-24T02:38:23;11.80;99.90
17891;DHT22;9071;48.220;14.480;2023-04-24T02:43:25;11.70;99.90
17891;DHT22;9071;48.220;14.480;2023-04-24T02:48:27;11.60;99.90
17891;DHT22;9071;48.220;14.480;2023-04-24T02:53:30;11.60;99.90
17891;DHT22;9071;48.220;14.480;2023-04-24T02:58:32;11.60;99.90
17891;DHT22;9071;48.220;14.480;2023-04-24T03:03:34;11.60;99.90
17891;DHT22;9071;48.220;14.480;2023-04-24T03:08:38;11.60;99.90
17891;DHT22;9071;48.220;14.480;2023-04-24T03:13:40;11.60;99.90
17891;DHT22;9071;48.220;14.480;2023-04-24T03:18:42;11.70;99.90
17891;DHT22;9071;48.220;14.480;2023-04-24T03:23:45;11.70;99.90
17891;DHT22;9071;48.220;14.480;2023-04-24T03:28:47;11.70;99.90
17891;DHT22;9071;48.220;14.480;2023-04-24T03:33:49;11.70;99.90
17891;DHT22;9071;48.220;14.480;2023-04-24T03:38:53;11.70;99.90
17891;DHT22;9071;48.220;14.480;2023-04-24T03:43:55;11.70;99.90
17891;DHT22;9071;48.220;14.480;2023-04-24T03:48:57;11.70;99.90
17891;DHT22;9071;48.220;14.480;2023-04-24T03:54:00;11.70;99.90
17891;DHT22;9071;48.220;14.480;2023-04-24T03:59:02;11.70;99.90
17891;DHT22;9071;48.220;14.480;2023-04-24T04:04:04;11.70;99.90
17891;DHT22;9071;48.220;14.480;2023-04-24T04:09:08;11.70;99.90
17891;DHT22;9071;48.220;14.480;2023-04-24T04:14:10;11.70;99.90
17891;DHT22;9071;48.220;14.480;2023-04-24T04:19:13;11.80;99.90
17891;DHT22;9071;48.220;14.480;2023-04-24T04:24:16;11.80;99.90
17891;DHT22;9071;48.220;14.480;2023-04-24T04:29:18;11.80;99.90
17891;DHT22;9071;48.220;14.480;2023-04-24T04:34:20;11.90;99.90
17891;DHT22;9071;48.220;14.480;2023-04-24T04:39:24;11.90;99.90
17891;DHT22;9071;48.220;14.480;2023-04-24T04:44:26;11.90;99.90
17891;DHT22;9071;48.220;14.480;2023-04-24T04:49:29;11.90;99.90
17891;DHT22;9071;48.220;14.480;2023-04-24T04:54:32;11.90;99.90
17891;DHT22;9071;48.220;14.480;2023-04-24T04:59:35;12.00;99.90
17891;DHT22;9071;48.220;14.480;2023-04-24T05:04:37;11.90;99.90
17891;DHT22;9071;48.220;14.480;2023-04-24T05:09:41;11.90;99.90
17891;DHT22;9071;48.220;14.480;2023-04-24T05:14:43;11.90;99.90
17891;DHT22;9071;48.220;14.480;2023-04-24T05:19:46;11.90;99.90
17891;DHT22;9071;48.220;14.480;2023-04-24T05:24:50;11.90;99.90
17891;DHT22;9071;48.220;14.480;2023-04-24T05:29:52;11.80;99.90
17891;DHT22;9071;48.220;14.480;2023-04-24T05:34:54;11.80;99.90
17891;DHT22;9071;48.220;14.480;2023-04-24T05:39:57;11.70;99.90
17891;DHT22;9071;48.220;14.480;2023-04-24T05:44:59;11.70;99.90
17891;DHT22;9071;48.220;14.480;2023-04-24T05:50:01;11.80;99.90
17891;DHT22;9071;48.220;14.480;2023-04-24T05:55:05;11.80;99.90
17891;DHT22;9071;48.220;14.480;2023-04-24T06:00:09;11.80;99.90
17891;DHT22;9071;48.220;14.480;2023-04-24T06:05:12;11.80;99.90
17891;DHT22;9071;48.220;14.480;2023-04-24T06:10:16;11.80;99.90
17891;DHT22;9071;48.220;14.480;2023-04-24T06:15:18;11.70;99.90
17891;DHT22;9071;48.220;14.480;2023-04-24T06:20:20;11.60;99.90
17891;DHT22;9071;48.220;14.480;2023-04-24T06:25:25;11.50;99.90
17891;DHT22;9071;48.220;14.480;2023-04-24T06:30:28;11.40;99.90
17891;DHT22;9071;48.220;14.480;2023-04-24T06:35:30;11.40;99.90
17891;DHT22;9071;48.220;14.480;2023-04-24T06:40:33;11.40;99.90
17891;DHT22;9071;48.220;14.480;2023-04-24T06:45:35;11.40;99.90
17891;DHT22;9071;48.220;14.480;2023-04-24T06:50:37;11.50;99.90
17891;DHT22;9071;48.220;14.480;2023-04-24T06:55:41;11.50;99.90
17891;DHT22;9071;48.220;14.480;2023-04-24T07:00:43;11.40;99.90
17891;DHT22;9071;48.220;14.480;2023-04-24T07:05:46;11.40;99.90
17891;DHT22;9071;48.220;14.480;2023-04-24T07:10:50;11.40;99.90
17891;DHT22;9071;48.220;14.480;2023-04-24T07:15:53;11.40;99.90
17891;DHT22;9071;48.220;14.480;2023-04-24T07:20:56;11.50;99.90
17891;DHT22;9071;48.220;14.480;2023-04-24T07:26:00;11.60;99.90
17891;DHT22;9071;48.220;14.480;2023-04-24T07:31:02;11.60;99.90
17891;DHT22;9071;48.220;14.480;2023-04-24T07:36:04;11.80;99.90
17891;DHT22;9071;48.220;14.480;2023-04-24T07:41:08;11.90;99.90
17891;DHT22;9071;48.220;14.480;2023-04-24T07:46:10;12.10;99.90
17891;DHT22;9071;48.220;14.480;2023-04-24T07:51:12;12.30;99.90
17891;DHT22;9071;48.220;14.480;2023-04-24T07:56:16;12.40;99.90
17891;DHT22;9071;48.220;14.480;2023-04-24T08:01:18;12.50;99.90
17891;DHT22;9071;48.220;14.480;2023-04-24T08:06:20;12.50;99.90
17891;DHT22;9071;48.220;14.480;2023-04-24T08:11:24;12.50;99.90
17891;DHT22;9071;48.220;14.480;2023-04-24T08:16:26;12.60;99.90
17891;DHT22;9071;48.220;14.480;2023-04-24T08:21:28;12.60;99.90
17891;DHT22;9071;48.220;14.480;2023-04-24T08:26:31;12.70;99.90
17891;DHT22;9071;48.220;14.480;2023-04-24T08:31:34;12.80;99.90
17891;DHT22;9071;48.220;14.480;2023-04-24T08:36:36;12.80;99.90
17891;DHT22;9071;48.220;14.480;2023-04-24T08:41:41;12.80;99.90
17891;DHT22;9071;48.220;14.480;2023-04-24T08:46:44;12.70;99.90
17891;DHT22;9071;48.220;14.480;2023-04-24T08:51:49;12.50;99.90
17891;DHT22;9071;48.220;14.480;2023-04-24T08:56:53;12.60;99.90
17891;DHT22;9071;48.220;14.480;2023-04-24T09:01:56;12.70;99.90
17891;DHT22;9071;48.220;14.480;2023-04-24T09:06:59;12.60;99.90
17891;DHT22;9071;48.220;14.480;2023-04-24T09:12:04;12.70;99.90
17891;DHT22;9071;48.220;14.480;2023-04-24T09:17:06;12.80;99.90
17891;DHT22;9071;48.220;14.480;2023-04-24T09:22:09;12.80;99.90
17891;DHT22;9071;48.220;14.480;2023-04-24T09:27:13;12.80;99.90
17891;DHT22;9071;48.220;14.480;2023-04-24T09:32:21;12.90;99.90
17891;DHT22;9071;48.220;14.480;2023-04-24T09:37:29;13.00;99.90
17891;DHT22;9071;48.220;14.480;2023-04-24T09:42:33;12.90;99.90
17891;DHT22;9071;48.220;14.480;2023-04-24T09:47:36;13.00;99.90
17891;DHT22;9071;48.220;14.480;2023-04-24T09:52:45;13.10;99.90
17891;DHT22;9071;48.220;14.480;2023-04-24T09:57:50;13.00;99.90
17891;DHT22;9071;48.220;14.480;2023-04-24T10:02:57;13.10;99.90
17891;DHT22;9071;48.220;14.480;2023-04-24T10:08:04;13.10;99.90
17891;DHT22;9071;48.220;14.480;2023-04-24T10:13:08;13.20;99.90
17891;DHT22;9071;48.220;14.480;2023-04-24T10:18:11;13.30;99.90
17891;DHT22;9071;48.220;14.480;2023-04-24T10:23:13;13.30;99.90
17891;DHT22;9071;48.220;14.480;2023-04-24T10:28:17;13.30;99.90
17891;DHT22;9071;48.220;14.480;2023-04-24T10:33:21;13.20;99.90
17891;DHT22;9071;48.220;14.480;2023-04-24T10:38:25;13.20;99.90
17891;DHT22;9071;48.220;14.480;2023-04-24T10:43:33;13.70;99.90
17891;DHT22;9071;48.220;14.480;2023-04-24T10:48:35;13.90;99.90
17891;DHT22;9071;48.220;14.480;2023-04-24T10:53:37;14.10;99.90
17891;DHT22;9071;48.220;14.480;2023-04-24T10:58:42;14.00;99.90
17891;DHT22;9071;48.220;14.480;2023-04-24T11:03:53;13.60;99.90
17891;DHT22;9071;48.220;14.480;2023-04-24T11:09:02;13.30;99.90
17891;DHT22;9071;48.220;14.480;2023-04-24T11:14:08;13.60;99.90
17891;DHT22;9071;48.220;14.480;2023-04-24T11:19:18;14.00;99.90
17891;DHT22;9071;48.220;14.480;2023-04-24T11:24:25;14.90;99.90
17891;DHT22;9071;48.220;14.480;2023-04-24T11:29:47;15.60;99.90
17891;DHT22;9071;48.220;14.480;2023-04-24T11:34:51;16.00;99.90
17891;DHT22;9071;48.220;14.480;2023-04-24T11:39:55;15.80;99.90
17891;DHT22;9071;48.220;14.480;2023-04-24T11:44:59;15.20;99.90
17891;DHT22;9071;48.220;14.480;2023-04-24T11:50:04;15.00;99.90
17891;DHT22;9071;48.220;14.480;2023-04-24T11:55:07;15.10;99.90
17891;DHT22;9071;48.220;14.480;2023-04-24T12:00:15;14.20;99.90
17891;DHT22;9071;48.220;14.480;2023-04-24T12:05:23;13.70;99.90
17891;DHT22;9071;48.220;14.480;2023-04-24T12:10:28;13.90;99.90
17891;DHT22;9071;48.220;14.480;2023-04-24T12:15:31;14.40;99.90
17891;DHT22;9071;48.220;14.480;2023-04-24T12:20:35;14.50;99.90
17891;DHT22;9071;48.220;14.480;2023-04-24T12:25:38;14.50;99.90
17891;DHT22;9071;48.220;14.480;2023-04-24T12:30:44;14.40;99.90
17891;DHT22;9071;48.220;14.480;2023-04-24T12:35:48;13.80;99.90
17891;DHT22;9071;48.220;14.480;2023-04-24T12:41:01;13.40;99.90
17891;DHT22;9071;48.220;14.480;2023-04-24T12:46:06;13.00;99.90
17891;DHT22;9071;48.220;14.480;2023-04-24T12:51:08;12.40;99.90
17891;DHT22;9071;48.220;14.480;2023-04-24T12:56:10;12.10;99.90
17891;DHT22;9071;48.220;14.480;2023-04-24T13:01:13;12.00;99.90
17891;DHT22;9071;48.220;14.480;2023-04-24T13:06:15;12.00;99.90
17891;DHT22;9071;48.220;14.480;2023-04-24T13:11:17;12.00;99.90
17891;DHT22;9071;48.220;14.480;2023-04-24T13:16:21;12.00;99.90
17891;DHT22;9071;48.220;14.480;2023-04-24T13:21:23;11.90;99.90
17891;DHT22;9071;48.220;14.480;2023-04-24T13:26:26;12.00;99.90
17891;DHT22;9071;48.220;14.480;2023-04-24T13:31:30;12.00;99.90
17891;DHT22;9071;48.220;14.480;2023-04-24T13:36:32;12.10;99.90
17891;DHT22;9071;48.220;14.480;2023-04-24T13:41:34;12.20;99.90
17891;DHT22;9071;48.220;14.480;2023-04-24T13:46:38;12.50;99.90
17891;DHT22;9071;48.220;14.480;2023-04-24T13:51:41;12.80;99.90
17891;DHT22;9071;48.220;14.480;2023-04-24T13:56:43;13.30;99.90
17891;DHT22;9071;48.220;14.480;2023-04-24T14:01:47;13.70;99.90
17891;DHT22;9071;48.220;14.480;2023-04-24T14:06:49;13.80;99.90
17891;DHT22;9071;48.220;14.480;2023-04-24T14:11:51;13.90;99.90
17891;DHT22;9071;48.220;14.480;2023-04-24T14:16:55;14.10;99.90
17891;DHT22;9071;48.220;14.480;2023-04-24T14:21:57;14.10;99.90
17891;DHT22;9071;48.220;14.480;2023-04-24T14:26:59;14.10;99.90
17891;DHT22;9071;48.220;14.480;2023-04-24T14:32:03;14.20;99.90
17891;DHT22;9071;48.220;14.480;2023-04-24T14:37:05;14.30;99.90
17891;DHT22;9071;48.220;14.480;2023-04-24T14:42:08;14.60;99.90
17891;DHT22;9071;48.220;14.480;2023-04-24T14:47:11;14.80;99.90
17891;DHT22;9071;48.220;14.480;2023-04-24T14:52:13;14.60;99.90
17891;DHT22;9071;48.220;14.480;2023-04-24T14:57:16;14.50;99.90
17891;DHT22;9071;48.220;14.480;2023-04-24T15:02:20;14.30;99.90
17891;DHT22;9071;48.220;14.480;2023-04-24T15:07:22;14.30;99.90
17891;DHT22;9071;48.220;14.480;2023-04-24T15:12:24;14.20;99.90
17891;DHT22;9071;48.220;14.480;2023-04-24T15:17:28;13.90;99.90
17891;DHT22;9071;48.220;14.480;2023-04-24T15:22:30;12.90;99.90
17891;DHT22;9071;48.220;14.480;2023-04-24T15:27:40;12.10;99.90
17891;DHT22;9071;48.220;14.480;2023-04-24T15:32:44;11.70;99.90
17891;DHT22;9071;48.220;14.480;2023-04-24T15:37:46;11.40;99.90
17891;DHT22;9071;48.220;14.480;2023-04-24T15:42:48;11.40;99.90
17891;DHT22;9071;48.220;14.480;2023-04-24T15:47:52;11.50;99.90
17891;DHT22;9071;48.220;14.480;2023-04-24T15:52:54;11.60;99.90
17891;DHT22;9071;48.220;14.480;2023-04-24T15:57:56;11.60;99.90
17891;DHT22;9071;48.220;14.480;2023-04-24T16:02:59;11.40;99.90
17891;DHT22;9071;48.220;14.480;2023-04-24T16:08:02;11.40;99.90
17891;DHT22;9071;48.220;14.480;2023-04-24T16:13:04;11.40;99.90
17891;DHT22;9071;48.220;14.480;2023-04-24T16:18:08;11.40;99.90
17891;DHT22;9071;48.220;14.480;2023-04-24T16:23:10;11.50;99.90
17891;DHT22;9071;48.220;14.480;2023-04-24T16:28:13;11.60;99.90
17891;DHT22;9071;48.220;14.480;2023-04-24T16:33:16;11.60;99.90
17891;DHT22;9071;48.220;14.480;2023-04-24T16:38:19;11.60;99.90
17891;DHT22;9071;48.220;14.480;2023-04-24T16:43:21;11.60;99.90
17891;DHT22;9071;48.220;14.480;2023-04-24T16:48:24;11.60;99.90
17891;DHT22;9071;48.220;14.480;2023-04-24T16:53:26;11.70;99.90
17891;DHT22;9071;48.220;14.480;2023-04-24T16:58:28;11.70;99.90
17891;DHT22;9071;48.220;14.480;2023-04-24T17:03:31;11.70;99.90
17891;DHT22;9071;48.220;14.480;2023-04-24T17:08:34;11.80;99.90
17891;DHT22;9071;48.220;14.480;2023-04-24T17:13:35;11.70;99.90
17891;DHT22;9071;48.220;14.480;2023-04-24T17:18:39;11.50;99.90
17891;DHT22;9071;48.220;14.480;2023-04-24T17:23:41;11.30;99.90
17891;DHT22;9071;48.220;14.480;2023-04-24T17:28:43;11.20;99.90
17891;DHT22;9071;48.220;14.480;2023-04-24T17:33:46;11.10;99.90
17891;DHT22;9071;48.220;14.480;2023-04-24T17:38:48;10.90;99.90
17891;DHT22;9071;48.220;14.480;2023-04-24T17:43:51;10.80;99.90
17891;DHT22;9071;48.220;14.480;2023-04-24T17:48:54;10.70;99.90
17891;DHT22;9071;48.220;14.480;2023-04-24T17:53:56;10.60;99.90
17891;DHT22;9071;48.220;14.480;2023-04-24T17:58:58;10.60;99.90
17891;DHT22;9071;48.220;14.480;2023-04-24T18:04:02;10.50;99.90
17891;DHT22;9071;48.220;14.480;2023-04-24T18:09:04;10.50;99.90
17891;DHT22;9071;48.220;14.480;2023-04-24T18:14:06;10.50;99.90
17891;DHT22;9071;48.220;14.480;2023-04-24T18:19:09;10.50;99.90
17891;DHT22;9071;48.220;14.480;2023-04-24T18:24:13;10.50;99.90
17891;DHT22;9071;48.220;14.480;2023-04-24T18:29:15;10.40;99.90
17891;DHT22;9071;48.220;14.480;2023-04-24T18:34:18;10.40;99.90
17891;DHT22;9071;48.220;14.480;2023-04-24T18:39:20;10.30;99.90
17891;DHT22;9071;48.220;14.480;2023-04-24T18:44:22;10.20;99.90
17891;DHT22;9071;48.220;14.480;2023-04-24T18:49:27;10.10;99.90
17891;DHT22;9071;48.220;14.480;2023-04-24T18:54:29;10.10;99.90
17891;DHT22;9071;48.220;14.480;2023-04-24T18:59:31;10.10;99.90
17891;DHT22;9071;48.220;14.480;2023-04-24T19:04:37;10.10;99.90
17891;DHT22;9071;48.220;14.480;2023-04-24T19:09:39;9.90;99.90
17891;DHT22;9071;48.220;14.480;2023-04-24T19:14:41;9.80;99.90
17891;DHT22;9071;48.220;14.480;2023-04-24T19:19:44;9.70;99.90
17891;DHT22;9071;48.220;14.480;2023-04-24T19:24:46;9.50;99.90
17891;DHT22;9071;48.220;14.480;2023-04-24T19:29:48;9.40;99.90
17891;DHT22;9071;48.220;14.480;2023-04-24T19:34:53;9.30;99.90
17891;DHT22;9071;48.220;14.480;2023-04-24T19:39:55;9.30;99.90
17891;DHT22;9071;48.220;14.480;2023-04-24T19:44:57;9.30;99.90
17891;DHT22;9071;48.220;14.480;2023-04-24T19:50:00;9.30;99.90
17891;DHT22;9071;48.220;14.480;2023-04-24T19:55:02;9.20;99.90
17891;DHT22;9071;48.220;14.480;2023-04-24T20:00:05;9.10;99.90
17891;DHT22;9071;48.220;14.480;2023-04-24T20:05:09;9.10;99.90
17891;DHT22;9071;48.220;14.480;2023-04-24T20:10:11;9.10;99.90
17891;DHT22;9071;48.220;14.480;2023-04-24T20:15:13;9.00;99.90
17891;DHT22;9071;48.220;14.480;2023-04-24T20:20:17;8.90;99.90
17891;DHT22;9071;48.220;14.480;2023-04-24T20:25:19;8.90;99.90
17891;DHT22;9071;48.220;14.480;2023-04-24T20:30:21;8.80;99.90
17891;DHT22;9071;48.220;14.480;2023-04-24T20:35:25;8.80;99.90
17891;DHT22;9071;48.220;14.480;2023-04-24T20:40:27;8.70;99.90
17891;DHT22;9071;48.220;14.480;2023-04-24T20:45:30;8.60;99.90
17891;DHT22;9071;48.220;14.480;2023-04-24T20:50:33;8.50;99.90
17891;DHT22;9071;48.220;14.480;2023-04-24T20:55:38;8.50;99.90
17891;DHT22;9071;48.220;14.480;2023-04-24T21:00:40;8.50;99.90
17891;DHT22;9071;48.220;14.480;2023-04-24T21:05:43;8.40;99.90
17891;DHT22;9071;48.220;14.480;2023-04-24T21:10:45;8.40;99.90
17891;DHT22;9071;48.220;14.480;2023-04-24T21:15:47;8.40;99.90
17891;DHT22;9071;48.220;14.480;2023-04-24T21:20:51;8.50;99.90
17891;DHT22;9071;48.220;14.480;2023-04-24T21:25:53;8.40;99.90
17891;DHT22;9071;48.220;14.480;2023-04-24T21:30:55;8.30;99.90
17891;DHT22;9071;48.220;14.480;2023-04-24T21:35:58;8.30;99.90
17891;DHT22;9071;48.220;14.480;2023-04-24T21:41:00;8.20;99.90
17891;DHT22;9071;48.220;14.480;2023-04-24T21:46:03;8.30;99.90
17891;DHT22;9071;48.220;14.480;2023-04-24T21:51:06;8.30;99.90
17891;DHT22;9071;48.220;14.480;2023-04-24T21:56:08;8.30;99.90
17891;DHT22;9071;48.220;14.480;2023-04-24T22:01:10;8.40;99.90
17891;DHT22;9071;48.220;14.480;2023-04-24T22:06:16;8.30;99.90
17891;DHT22;9071;48.220;14.480;2023-04-24T22:11:18;8.20;99.90
17891;DHT22;9071;48.220;14.480;2023-04-24T22:16:21;8.10;99.90
17891;DHT22;9071;48.220;14.480;2023-04-24T22:21:25;8.10;99.90
17891;DHT22;9071;48.220;14.480;2023-04-24T22:26:28;8.00;99.90
17891;DHT22;9071;48.220;14.480;2023-04-24T22:31:30;8.00;99.90
17891;DHT22;9071;48.220;14.480;2023-04-24T22:36:33;7.90;99.90
17891;DHT22;9071;48.220;14.480;2023-04-24T22:41:35;7.80;99.90
17891;DHT22;9071;48.220;14.480;2023-04-24T22:46:37;7.60;99.90
17891;DHT22;9071;48.220;14.480;2023-04-24T22:51:41;7.50;99.90
17891;DHT22;9071;48.220;14.480;2023-04-24T22:56:43;7.50;99.90
17891;DHT22;9071;48.220;14.480;2023-04-24T23:01:45;7.40;99.90
17891;DHT22;9071;48.220;14.480;2023-04-24T23:06:48;7.30;99.90
17891;DHT22;9071;48.220;14.480;2023-04-24T23:11:50;7.20;99.90
17891;DHT22;9071;48.220;14.480;2023-04-24T23:16:52;7.10;99.90
17891;DHT22;9071;48.220;14.480;2023-04-24T23:21:56;7.10;99.90
17891;DHT22;9071;48.220;14.480;2023-04-24T23:26:58;7.10;99.90
17891;DHT22;9071;48.220;14.480;2023-04-24T23:32:01;7.10;99.90
17891;DHT22;9071;48.220;14.480;2023-04-24T23:37:04;7.20;99.90
17891;DHT22;9071;48.220;14.480;2023-04-24T23:42:06;7.20;99.90
17891;DHT22;9071;48.220;14.480;2023-04-24T23:47:08;7.20;99.90
17891;DHT22;9071;48.220;14.480;2023-04-24T23:52:12;7.20;99.90
17891;DHT22;9071;48.220;14.480;2023-04-24T23:57:14;7.10;99.90
